Time;durP1;ratioP1;P1;durP2;ratioP2;P2;SDS_P1;SDS_P2;PMS_P1;PMS_P2;Temp;Humidity;BMP_temperature;BMP_pressure;BME280_temperature;BME280_humidity;BME280_pressure;Samples;Min_cycle;Max_cycle;Signal;HPM_P1;HPM_P2
2022/03/26 00:01:30;;;;;;;91.00;60.50;;;;;;;5.70;93.73;102811.25;5010383;28;20168;-46
2022/03/26 00:03:55;;;;;;;98.05;62.83;;;;;;;5.64;94.07;102805.88;5009997;28;20259;-43
2022/03/26 00:06:21;;;;;;;96.18;61.55;;;;;;;5.61;94.33;102799.59;5010881;28;20672;-45
2022/03/26 00:08:49;;;;;;;95.40;62.28;;;;;;;5.60;94.18;102803.13;5010778;28;20191;-46
2022/03/26 00:11:15;;;;;;;91.63;58.60;;;;;;;5.63;94.40;102792.53;5009950;28;20259;-41
2022/03/26 00:13:41;;;;;;;92.55;59.78;;;;;;;5.68;94.01;102796.16;5010261;28;20173;-48
2022/03/26 00:16:06;;;;;;;92.97;60.40;;;;;;;5.59;94.04;102799.56;5008742;28;20243;-43
2022/03/26 00:18:31;;;;;;;92.35;58.95;;;;;;;5.66;93.94;102798.78;5009168;28;20272;-43
2022/03/26 00:20:57;;;;;;;94.32;60.55;;;;;;;5.60;94.14;102808.44;5009953;28;20187;-44
2022/03/26 00:23:22;;;;;;;88.82;59.33;;;;;;;5.58;94.42;102795.16;5008496;28;20505;-42
2022/03/26 00:25:48;;;;;;;82.43;56.47;;;;;;;5.65;94.46;102802.31;5010186;28;20200;-43
2022/03/26 00:28:13;;;;;;;84.75;55.92;;;;;;;5.69;94.71;102801.50;5010239;28;20165;-45
2022/03/26 00:30:39;;;;;;;94.50;59.83;;;;;;;5.53;94.66;102800.41;5010167;28;20218;-44
2022/03/26 00:33:04;;;;;;;99.97;61.70;;;;;;;5.41;95.47;102794.00;5009640;28;20259;-44
2022/03/26 00:35:30;;;;;;;93.13;59.75;;;;;;;5.52;95.04;102789.72;5009662;28;20196;-44
2022/03/26 00:37:55;;;;;;;93.50;59.40;;;;;;;5.63;95.35;102792.53;5010388;28;20177;-41
2022/03/26 00:40:21;;;;;;;90.57;60.35;;;;;;;5.52;95.74;102798.59;5010472;28;20179;-43
2022/03/26 00:42:46;;;;;;;99.22;62.17;;;;;;;5.48;96.40;102786.13;5006897;23;20228;-45
2022/03/26 00:45:12;;;;;;;96.15;58.97;;;;;;;5.54;96.75;102788.88;5025833;28;20686;-51
2022/03/26 00:47:37;;;;;;;101.75;63.38;;;;;;;5.47;96.25;102783.47;5033048;28;20262;-46
2022/03/26 00:50:04;;;;;;;97.90;61.30;;;;;;;5.53;96.87;102794.16;5048956;28;20175;-43
2022/03/26 00:52:29;;;;;;;99.68;63.80;;;;;;;5.37;97.09;102790.41;5049021;28;20176;-43
2022/03/26 00:54:55;;;;;;;100.57;62.47;;;;;;;5.35;97.77;102789.47;5049323;28;20344;-46
2022/03/26 00:57:21;;;;;;;97.43;62.95;;;;;;;5.39;98.01;102790.44;5049537;28;20206;-48
2022/03/26 00:59:46;;;;;;;95.13;61.58;;;;;;;5.42;98.47;102785.16;5049319;28;20182;-47
2022/03/26 01:02:12;;;;;;;98.82;62.45;;;;;;;5.37;98.56;102795.72;5048988;28;20171;-47
2022/03/26 01:04:38;;;;;;;95.65;61.80;;;;;;;5.41;98.92;102794.00;5049148;28;20207;-46
2022/03/26 01:07:05;;;;;;;97.65;62.92;;;;;;;5.37;99.07;102791.28;5048055;28;20171;-47
2022/03/26 01:09:30;;;;;;;98.95;63.60;;;;;;;5.38;98.95;102805.50;5049394;28;20187;-49
2022/03/26 01:11:55;;;;;;;96.65;62.47;;;;;;;5.37;99.12;102793.94;5049104;28;20175;-46
2022/03/26 01:14:21;;;;;;;97.32;63.92;;;;;;;5.32;98.84;102803.63;5048324;28;20723;-47
2022/03/26 01:16:46;;;;;;;96.20;62.92;;;;;;;5.39;99.17;102798.41;5048955;28;20206;-47
2022/03/26 01:19:12;;;;;;;93.28;61.28;;;;;;;5.37;99.20;102801.91;5049151;28;20221;-46
2022/03/26 01:21:37;;;;;;;99.15;61.65;;;;;;;5.35;99.37;102800.13;5049128;28;20226;-46
2022/03/26 01:24:03;;;;;;;96.20;60.42;;;;;;;5.29;99.40;102800.00;5048834;28;20195;-46
2022/03/26 01:26:28;;;;;;;94.32;60.08;;;;;;;5.28;99.26;102804.44;5049366;28;20164;-46
2022/03/26 01:28:54;;;;;;;93.20;61.90;;;;;;;5.29;99.37;102792.97;5049113;28;20626;-45
2022/03/26 01:31:20;;;;;;;95.22;62.38;;;;;;;5.26;99.81;102795.53;5048791;28;20194;-46
2022/03/26 01:33:47;;;;;;;92.90;61.22;;;;;;;5.23;99.84;102790.19;5050755;28;20164;-44
2022/03/26 01:36:13;;;;;;;97.80;62.05;;;;;;;5.18;100.00;102794.53;5051437;28;20676;-45
2022/03/26 01:38:38;;;;;;;96.05;60.63;;;;;;;5.14;99.99;102792.72;5051183;28;20175;-45
2022/03/26 01:41:04;;;;;;;94.07;60.38;;;;;;;5.16;100.00;102780.34;5052765;28;20186;-44
2022/03/26 01:43:29;;;;;;;97.57;62.83;;;;;;;5.09;100.00;102779.34;5051657;28;20187;-44
2022/03/26 01:45:55;;;;;;;95.60;61.13;;;;;;;5.08;100.00;102774.03;5036859;28;20619;-44
2022/03/26 01:48:20;;;;;;;95.78;61.13;;;;;;;5.08;100.00;102774.91;5032154;28;20168;-45
2022/03/26 01:50:45;;;;;;;93.75;60.17;;;;;;;5.15;100.00;102779.44;5032648;28;20168;-45
2022/03/26 01:53:11;;;;;;;93.82;61.50;;;;;;;5.03;100.00;102781.00;5032133;28;20180;-42
2022/03/26 01:55:37;;;;;;;89.60;59.60;;;;;;;5.07;100.00;102769.56;5032041;28;20196;-44
2022/03/26 01:58:02;;;;;;;89.80;59.88;;;;;;;4.97;100.00;102762.34;5032352;28;20175;-44
2022/03/26 02:00:28;;;;;;;92.88;59.90;;;;;;;4.98;100.00;102774.72;5014415;28;20230;-44
2022/03/26 02:02:54;;;;;;;91.47;60.13;;;;;;;4.97;100.00;102772.97;5031661;28;20215;-44
2022/03/26 02:05:20;;;;;;;89.72;59.33;;;;;;;4.94;100.00;102766.72;5032267;28;20200;-45
2022/03/26 02:07:47;;;;;;;92.80;60.13;;;;;;;4.91;100.00;102761.34;5032164;28;20221;-45
2022/03/26 02:10:16;;;;;;;97.25;62.55;;;;;;;4.99;100.00;102761.47;5032457;28;20257;-44
2022/03/26 02:12:41;;;;;;;98.88;61.83;;;;;;;4.86;100.00;102754.19;5031656;28;20260;-44
2022/03/26 02:15:08;;;;;;;86.53;58.40;;;;;;;4.87;100.00;102756.84;5034340;28;20278;-45
2022/03/26 02:17:34;;;;;;;94.82;60.75;;;;;;;4.83;100.00;102749.72;5048312;28;20340;-43
2022/03/26 02:20:01;;;;;;;92.90;60.13;;;;;;;4.79;100.00;102737.25;5051009;28;20178;-44
2022/03/26 02:22:28;;;;;;;86.70;57.50;;;;;;;4.88;100.00;102742.72;5032942;28;20178;-43
2022/03/26 02:24:54;;;;;;;83.88;56.10;;;;;;;4.86;100.00;102746.22;5051447;28;20282;-45
2022/03/26 02:27:24;;;;;;;90.43;57.10;;;;;;;4.95;100.00;102736.63;5051496;28;20203;-45
2022/03/26 02:29:51;;;;;;;99.97;59.88;;;;;;;4.81;100.00;102735.53;5051814;28;20170;-45
2022/03/26 02:32:25;;;;;;;86.65;58.03;;;;;;;4.86;100.00;102730.28;5050860;28;20163;-45
2022/03/26 02:34:51;;;;;;;87.70;57.33;;;;;;;4.81;100.00;102723.97;5051583;28;20282;-45
2022/03/26 02:37:17;;;;;;;89.03;58.90;;;;;;;4.82;100.00;102731.97;5050890;28;20282;-44
2022/03/26 02:39:43;;;;;;;90.95;58.75;;;;;;;4.83;100.00;102735.53;5051222;28;20682;-44
2022/03/26 02:42:09;;;;;;;93.10;57.88;;;;;;;4.87;100.00;102745.34;5051942;28;20630;-45
2022/03/26 02:44:35;;;;;;;89.78;58.55;;;;;;;4.94;100.00;102740.16;5050330;28;20259;-45
2022/03/26 02:47:00;;;;;;;86.18;56.63;;;;;;;4.81;100.00;102739.91;5033444;28;20163;-44
2022/03/26 02:49:25;;;;;;;93.75;57.45;;;;;;;4.81;100.00;102737.25;5033107;28;20175;-46
2022/03/26 02:51:51;;;;;;;80.90;53.95;;;;;;;4.80;100.00;102732.84;5050888;28;20202;-45
2022/03/26 02:54:19;;;;;;;86.90;56.05;;;;;;;4.86;100.00;102731.16;5050992;28;20221;-44
2022/03/26 02:56:47;;;;;;;84.30;55.42;;;;;;;4.73;100.00;102734.50;5033003;28;20203;-44
2022/03/26 02:59:12;;;;;;;89.50;57.53;;;;;;;4.81;100.00;102732.88;5033409;28;20245;-44
2022/03/26 03:01:38;;;;;;;90.53;57.55;;;;;;;4.87;100.00;102732.94;5050773;28;20175;-44
2022/03/26 03:04:04;;;;;;;86.85;55.80;;;;;;;4.75;100.00;102738.97;5050725;28;20175;-45
2022/03/26 03:06:30;;;;;;;86.57;54.78;;;;;;;4.85;100.00;102729.38;5050190;28;20164;-45
2022/03/26 03:08:56;;;;;;;83.75;56.83;;;;;;;4.85;100.00;102729.38;5050862;28;20203;-44
2022/03/26 03:11:22;;;;;;;93.07;58.70;;;;;;;4.77;100.00;102728.38;5050789;28;20175;-43
2022/03/26 03:13:48;;;;;;;86.30;56.97;;;;;;;4.66;100.00;102720.22;5050121;28;20163;-44
2022/03/26 03:16:14;;;;;;;95.05;57.17;;;;;;;4.64;100.00;102729.03;5032936;28;20233;-45
2022/03/26 03:18:39;;;;;;;94.93;59.42;;;;;;;4.61;100.00;102723.66;5050865;28;20210;-44
2022/03/26 03:21:04;;;;;;;95.07;59.05;;;;;;;4.60;100.00;102724.53;5032597;28;20183;-45
2022/03/26 03:23:30;;;;;;;93.60;59.55;;;;;;;4.60;100.00;102721.88;5050183;28;20171;-43
2022/03/26 03:25:55;;;;;;;91.22;59.75;;;;;;;4.61;100.00;102721.00;5050279;28;20219;-43
2022/03/26 03:28:25;;;;;;;95.03;59.25;;;;;;;4.53;100.00;102729.75;5050379;28;20190;-43
2022/03/26 03:30:51;;;;;;;94.32;61.42;;;;;;;4.53;100.00;102719.13;5050543;28;20176;-44
2022/03/26 03:33:17;;;;;;;95.55;60.53;;;;;;;4.56;100.00;102710.31;5049976;28;20242;-45
2022/03/26 03:35:43;;;;;;;99.05;60.70;;;;;;;4.55;100.00;102697.91;5050147;28;20198;-45
2022/03/26 03:38:08;;;;;;;96.70;60.40;;;;;;;4.52;100.00;102700.50;5050273;28;20258;-44
2022/03/26 03:40:34;;;;;;;97.93;60.38;;;;;;;4.51;100.00;102707.59;5050319;28;20660;-44
2022/03/26 03:42:59;;;;;;;98.93;61.20;;;;;;;4.54;100.00;102712.94;5049826;28;20159;-45
2022/03/26 03:45:25;;;;;;;93.20;60.78;;;;;;;4.53;100.00;102711.16;5049827;28;20257;-44
2022/03/26 03:47:51;;;;;;;96.95;60.97;;;;;;;4.53;100.00;102715.59;5032835;28;20213;-44
2022/03/26 03:50:16;;;;;;;95.82;60.08;;;;;;;4.65;100.00;102704.25;5049798;28;20172;-44
2022/03/26 03:52:42;;;;;;;101.35;62.70;;;;;;;4.57;100.00;102705.88;5050115;28;20178;-45
2022/03/26 03:55:07;;;;;;;92.40;60.58;;;;;;;4.59;100.00;102709.47;5049499;28;20282;-45
2022/03/26 03:57:33;;;;;;;99.18;62.15;;;;;;;4.57;100.00;102716.50;5049656;28;20229;-43
2022/03/26 03:59:59;;;;;;;90.25;59.80;;;;;;;4.54;100.00;102709.38;5049980;28;20470;-44
2022/03/26 04:02:24;;;;;;;97.72;62.03;;;;;;;4.51;100.00;102718.19;5049051;28;20630;-43
2022/03/26 04:04:50;;;;;;;97.70;62.78;;;;;;;4.53;100.00;102705.84;5049821;28;20274;-45
2022/03/26 04:07:15;;;;;;;96.97;60.90;;;;;;;4.49;100.00;102698.69;5049864;28;20160;-44
2022/03/26 04:09:40;;;;;;;96.03;59.67;;;;;;;4.61;100.00;102708.63;5049618;28;20183;-45
2022/03/26 04:12:06;;;;;;;95.55;61.45;;;;;;;4.48;100.00;102702.22;5031719;28;20175;-43
2022/03/26 04:14:32;;;;;;;103.18;60.65;;;;;;;4.43;100.00;102698.59;5048155;28;20905;-44
2022/03/26 04:16:58;;;;;;;101.57;61.53;;;;;;;4.44;100.00;102703.03;5037782;28;20201;-46
2022/03/26 04:19:23;;;;;;;97.50;61.70;;;;;;;4.49;100.00;102709.31;5047912;28;20181;-44
2022/03/26 04:21:49;;;;;;;94.57;59.38;;;;;;;4.50;100.00;102699.59;5049365;28;20168;-45
2022/03/26 04:24:14;;;;;;;100.28;61.80;;;;;;;4.50;100.00;102702.25;5048344;28;20217;-45
2022/03/26 04:26:40;;;;;;;100.22;61.05;;;;;;;4.49;100.00;102724.34;5042103;28;20692;-43
2022/03/26 04:29:05;;;;;;;102.75;62.35;;;;;;;4.43;100.00;102722.47;5049623;28;20171;-44
2022/03/26 04:31:30;;;;;;;103.70;62.22;;;;;;;4.46;100.00;102714.59;5049597;28;20201;-46
2022/03/26 04:34:01;;;;;;;103.13;62.00;;;;;;;4.53;100.00;102704.97;5048977;28;20186;-43
2022/03/26 04:36:27;;;;;;;101.70;62.58;;;;;;;4.38;100.00;102716.19;5049621;28;20235;-43
2022/03/26 04:38:52;;;;;;;103.50;63.10;;;;;;;4.43;100.00;102713.63;5049383;28;20163;-44
2022/03/26 04:41:18;;;;;;;102.63;60.67;;;;;;;4.44;100.00;102699.47;5049742;28;20202;-44
2022/03/26 04:43:43;;;;;;;105.95;61.72;;;;;;;4.42;100.00;102709.19;5048941;28;20324;-45
2022/03/26 04:46:09;;;;;;;104.30;60.97;;;;;;;4.41;100.00;102710.94;5031547;28;20187;-44
2022/03/26 04:48:34;;;;;;;102.95;61.85;;;;;;;4.38;100.00;102710.00;5049605;28;20641;-44
2022/03/26 04:51:00;;;;;;;105.57;61.58;;;;;;;4.40;100.00;102703.84;5049173;28;20174;-45
2022/03/26 04:53:25;;;;;;;107.78;62.97;;;;;;;4.43;100.00;102706.56;5049093;28;20637;-44
2022/03/26 04:55:51;;;;;;;109.85;62.33;;;;;;;4.41;100.00;102702.09;5049234;28;20258;-44
2022/03/26 04:58:16;;;;;;;104.10;62.17;;;;;;;4.44;100.00;102702.13;5049190;28;20611;-43
2022/03/26 05:00:42;;;;;;;101.05;61.53;;;;;;;4.49;100.00;102704.00;5048989;28;20190;-44
2022/03/26 05:03:08;;;;;;;114.45;61.28;;;;;;;4.45;100.00;102702.16;5048618;28;20167;-45
2022/03/26 05:05:33;;;;;;;105.30;61.50;;;;;;;4.47;100.00;102704.84;5049091;28;20184;-45
2022/03/26 05:07:59;;;;;;;103.40;61.33;;;;;;;4.51;100.00;102710.25;5052096;28;20183;-45
2022/03/26 05:10:27;;;;;;;104.18;60.58;;;;;;;4.60;100.00;102703.31;5053024;28;20294;-46
2022/03/26 05:12:54;;;;;;;102.95;59.22;;;;;;;4.61;100.00;102691.81;5052866;28;20172;-44
2022/03/26 05:15:22;;;;;;;99.03;58.22;;;;;;;4.70;100.00;102713.19;5034594;28;20199;-45
2022/03/26 05:17:48;;;;;;;103.10;56.67;;;;;;;4.75;100.00;102706.22;5018251;28;20190;-45
2022/03/26 05:20:13;;;;;;;96.18;56.90;;;;;;;4.86;100.00;102711.69;5052927;28;20176;-44
2022/03/26 05:22:44;;;;;;;98.07;54.70;;;;;;;4.91;100.00;102710.00;5034194;28;20179;-45
2022/03/26 05:25:10;;;;;;;92.25;52.33;;;;;;;5.05;100.00;102715.50;5052665;28;20199;-44
2022/03/26 05:27:36;;;;;;;80.15;48.85;;;;;;;5.15;100.00;102713.00;5052644;28;20225;-44
2022/03/26 05:30:03;;;;;;;83.68;49.40;;;;;;;5.33;100.00;102723.00;5052990;28;20198;-42
2022/03/26 05:32:28;;;;;;;80.18;46.80;;;;;;;5.42;100.00;102731.97;5051774;28;20233;-45
2022/03/26 05:34:54;;;;;;;82.65;48.08;;;;;;;5.49;100.00;102721.47;5052471;28;20207;-43
2022/03/26 05:37:19;;;;;;;76.57;46.47;;;;;;;5.58;100.00;102723.34;5052624;28;20282;-43
2022/03/26 05:39:45;;;;;;;73.85;45.67;;;;;;;5.64;100.00;102715.47;5052341;28;20182;-44
2022/03/26 05:42:11;;;;;;;72.20;46.83;;;;;;;5.72;100.00;102724.41;5051982;28;20180;-44
2022/03/26 05:44:36;;;;;;;76.00;45.67;;;;;;;5.71;100.00;102725.28;5051435;28;20264;-44
2022/03/26 05:47:03;;;;;;;76.03;44.58;;;;;;;5.71;100.00;102732.38;5051791;28;20544;-45
2022/03/26 05:49:29;;;;;;;72.03;45.13;;;;;;;5.75;100.00;102728.84;5052057;28;20170;-44
2022/03/26 05:51:54;;;;;;;72.70;47.35;;;;;;;5.70;100.00;102725.25;5051309;28;20187;-44
2022/03/26 05:54:20;;;;;;;70.22;44.42;;;;;;;5.81;100.00;102730.72;5051954;28;20562;-43
2022/03/26 05:56:51;;;;;;;75.63;45.97;;;;;;;5.74;100.00;102727.97;5034085;28;20278;-44
2022/03/26 05:59:23;;;;;;;66.50;44.50;;;;;;;5.77;100.00;102713.81;5052008;28;20176;-44
2022/03/26 06:01:49;;;;;;;68.93;45.03;;;;;;;5.80;100.00;102720.97;5052222;28;20678;-44
2022/03/26 06:04:15;;;;;;;65.68;43.53;;;;;;;5.90;100.00;102713.13;5051337;28;20202;-46
2022/03/26 06:06:41;;;;;;;69.65;45.13;;;;;;;5.92;100.00;102708.69;5034281;28;20159;-45
2022/03/26 06:09:07;;;;;;;76.63;45.40;;;;;;;5.90;100.00;102715.78;5052012;28;20179;-44
2022/03/26 06:11:33;;;;;;;71.15;43.97;;;;;;;5.96;100.00;102705.22;5052028;28;20230;-45
2022/03/26 06:13:58;;;;;;;63.13;41.42;;;;;;;5.98;100.00;102713.22;5051453;28;20182;-43
2022/03/26 06:16:24;;;;;;;64.70;42.40;;;;;;;6.02;100.00;102715.03;5051079;28;20195;-44
2022/03/26 06:18:50;;;;;;;66.40;39.65;;;;;;;6.06;100.00;102719.53;5051655;28;20175;-44
2022/03/26 06:21:16;;;;;;;61.55;40.42;;;;;;;6.14;100.00;102712.53;5051811;28;20492;-44
2022/03/26 06:23:41;;;;;;;65.40;39.85;;;;;;;6.17;100.00;102711.66;5033434;28;20183;-44
2022/03/26 06:26:07;;;;;;;57.50;37.78;;;;;;;6.24;100.00;102715.28;5052015;28;20618;-44
2022/03/26 06:28:33;;;;;;;60.78;37.72;;;;;;;6.28;100.00;102717.09;5051757;28;20166;-42
2022/03/26 06:30:58;;;;;;;56.80;37.45;;;;;;;6.33;100.00;102707.38;5052246;28;20174;-45
2022/03/26 06:33:24;;;;;;;51.90;34.05;;;;;;;6.42;100.00;102714.56;5051672;28;20160;-44
2022/03/26 06:35:50;;;;;;;51.35;34.83;;;;;;;6.51;100.00;102728.81;5033693;28;20951;-43
2022/03/26 06:38:15;;;;;;;54.40;35.33;;;;;;;6.56;100.00;102723.56;5051326;28;20575;-45
2022/03/26 06:40:41;;;;;;;51.75;34.35;;;;;;;6.65;100.00;102723.66;5033601;28;20529;-44
2022/03/26 06:43:07;;;;;;;50.70;32.67;;;;;;;6.70;100.00;102723.69;5050713;28;20247;-43
2022/03/26 06:45:34;;;;;;;52.40;31.95;;;;;;;6.73;100.00;102715.69;5075137;22;20297;-43
2022/03/26 06:48:00;;;;;;;45.50;31.30;;;;;;;6.86;100.00;102725.56;5064520;28;20273;-43
2022/03/26 06:50:25;;;;;;;47.45;30.85;;;;;;;6.91;100.00;102722.94;5071553;28;20262;-43
2022/03/26 06:52:52;;;;;;;46.22;29.40;;;;;;;6.97;100.00;102715.88;5071042;28;20179;-41
2022/03/26 06:55:18;;;;;;;42.22;28.83;;;;;;;7.03;100.00;102720.38;5071786;28;20556;-43
2022/03/26 06:57:43;;;;;;;47.53;30.27;;;;;;;7.06;100.00;102715.06;5071333;28;20175;-43
2022/03/26 07:00:11;;;;;;;45.03;27.77;;;;;;;7.12;100.00;102719.53;5072059;28;20182;-42
2022/03/26 07:02:37;;;;;;;43.17;26.88;;;;;;;7.19;100.00;102714.28;5070957;28;20201;-43
2022/03/26 07:05:06;;;;;;;42.80;27.00;;;;;;;7.25;100.00;102717.84;5071555;28;20233;-44
2022/03/26 07:07:32;;;;;;;39.35;25.45;;;;;;;7.33;100.00;102719.69;5071043;28;20253;-42
2022/03/26 07:09:58;;;;;;;38.78;24.20;;;;;;;7.50;100.00;102713.53;5071360;28;20262;-44
2022/03/26 07:12:24;;;;;;;37.17;23.08;;;;;;;7.50;100.00;102719.78;5071175;28;20167;-42
2022/03/26 07:14:49;;;;;;;34.97;23.92;;;;;;;7.53;100.00;102722.44;5070088;28;20255;-43
2022/03/26 07:17:16;;;;;;;33.47;22.70;;;;;;;7.55;100.00;102719.78;5070581;28;20612;-42
2022/03/26 07:19:42;;;;;;;36.33;23.15;;;;;;;7.59;100.00;102718.94;5053291;28;20863;-43
2022/03/26 07:22:08;;;;;;;33.33;21.50;;;;;;;7.71;100.00;102724.28;5071021;28;20163;-43
2022/03/26 07:24:33;;;;;;;34.20;22.50;;;;;;;7.71;100.00;102723.41;5069371;28;20190;-43
2022/03/26 07:26:59;;;;;;;32.85;21.75;;;;;;;7.78;100.00;102725.22;5070492;28;20615;-41
2022/03/26 07:29:24;;;;;;;31.73;22.08;;;;;;;7.75;100.00;102717.22;5071471;28;20162;-43
2022/03/26 07:31:49;;;;;;;28.58;22.35;;;;;;;7.82;100.00;102729.69;5070432;28;20178;-43
2022/03/26 07:34:16;;;;;;;32.15;21.92;;;;;;;7.81;100.00;102718.13;5070521;28;20226;-42
2022/03/26 07:36:42;;;;;;;28.60;21.90;;;;;;;7.79;100.00;102725.22;5069043;28;20285;-43
2022/03/26 07:39:07;;;;;;;34.05;23.38;;;;;;;7.78;100.00;102735.88;5070333;28;20179;-43
2022/03/26 07:41:33;;;;;;;29.60;20.83;;;;;;;7.87;100.00;102738.63;5070065;28;20185;-42
2022/03/26 07:43:58;;;;;;;31.48;21.55;;;;;;;7.88;100.00;102734.16;5069685;28;20639;-43
2022/03/26 07:46:24;;;;;;;30.50;20.90;;;;;;;7.93;100.00;102743.94;5070286;28;20181;-44
2022/03/26 07:48:49;;;;;;;32.28;20.67;;;;;;;7.93;100.00;102745.72;5068252;28;20233;-41
2022/03/26 07:51:15;;;;;;;33.85;20.45;;;;;;;7.96;100.00;102754.66;5070206;28;20553;-43
2022/03/26 07:53:40;;;;;;;28.85;20.38;;;;;;;8.03;100.00;102759.13;5070073;28;20884;-44
2022/03/26 07:56:06;;;;;;;26.45;19.48;;;;;;;8.02;100.00;102760.03;5069563;28;20213;-43
2022/03/26 07:58:31;;;;;;;25.13;18.55;;;;;;;8.11;100.00;102752.91;5069159;28;20179;-43
2022/03/26 08:00:57;;;;;;;26.55;17.80;;;;;;;8.19;100.00;102754.72;5070192;28;20576;-42
2022/03/26 08:03:24;;;;;;;23.35;16.70;;;;;;;8.23;100.00;102756.50;5069435;28;20191;-42
2022/03/26 08:05:50;;;;;;;23.90;17.23;;;;;;;8.30;100.00;102764.53;5069796;28;20214;-43
2022/03/26 08:08:15;;;;;;;20.10;14.63;;;;;;;8.44;100.00;102777.06;5082226;28;20217;-43
2022/03/26 08:10:41;;;;;;;19.52;15.57;;;;;;;8.45;100.00;102772.63;5090100;28;20677;-42
2022/03/26 08:13:06;;;;;;;17.15;11.55;;;;;;;8.43;100.00;102777.94;5089830;28;20687;-42
2022/03/26 08:15:32;;;;;;;15.05;10.32;;;;;;;8.58;100.00;102773.53;5089917;28;20201;-42
2022/03/26 08:18:02;;;;;;;16.02;10.15;;;;;;;8.63;100.00;102774.41;5073675;28;20179;-42
2022/03/26 08:20:28;;;;;;;16.05;10.50;;;;;;;8.65;100.00;102776.19;5069599;28;20167;-42
2022/03/26 08:22:53;;;;;;;16.75;10.52;;;;;;;8.73;100.00;102778.00;5068683;28;20163;-42
2022/03/26 08:26:19;;;;;;;13.68;8.50;;;;;;;8.79;100.00;102773.56;5067800;28;20226;-42
2022/03/26 08:28:06;;;;;;;10.50;7.43;;;;;;;8.81;100.00;102776.19;5069130;28;20186;-41
2022/03/26 08:30:32;;;;;;;8.35;6.65;;;;;;;8.92;100.00;102782.47;5066489;28;20282;-42
2022/03/26 08:33:00;;;;;;;11.18;7.10;;;;;;;8.90;100.00;102788.69;5059487;28;20618;-41
2022/03/26 08:35:26;;;;;;;8.77;6.45;;;;;;;8.92;100.00;102771.78;5073511;28;20202;-43
2022/03/26 08:37:51;;;;;;;7.88;5.90;;;;;;;8.90;100.00;102773.56;5068858;28;20200;-41
2022/03/26 08:40:17;;;;;;;8.40;5.68;;;;;;;8.93;100.00;102780.69;5067924;28;20175;-43
2022/03/26 08:42:42;;;;;;;7.22;6.10;;;;;;;9.00;100.00;102783.34;5072691;28;20239;-41
2022/03/26 08:45:08;;;;;;;7.55;6.20;;;;;;;8.95;100.00;102790.47;5075043;28;20688;-43
2022/03/26 08:47:33;;;;;;;7.85;5.85;;;;;;;8.80;100.00;102799.38;5076207;28;20238;-43
2022/03/26 08:49:59;;;;;;;10.07;5.90;;;;;;;8.90;100.00;102802.97;5075581;28;20174;-42
2022/03/26 08:52:24;;;;;;;10.43;5.38;;;;;;;8.85;100.00;102810.97;5073917;28;20213;-42
2022/03/26 08:54:50;;;;;;;6.60;5.53;;;;;;;8.93;99.86;102813.66;5074520;28;20201;-42
2022/03/26 08:57:15;;;;;;;8.32;5.50;;;;;;;8.92;99.69;102805.63;5075601;28;20200;-43
2022/03/26 08:59:41;;;;;;;7.32;5.38;;;;;;;8.95;99.13;102809.19;5075698;28;20252;-42
2022/03/26 09:02:06;;;;;;;8.85;5.55;;;;;;;8.95;98.81;102811.88;5073874;28;20611;-42
2022/03/26 09:04:31;;;;;;;7.38;5.03;;;;;;;9.00;98.71;102812.75;5074640;28;20199;-44
2022/03/26 09:06:57;;;;;;;7.50;5.15;;;;;;;8.94;98.18;102812.75;5075485;28;20175;-41
2022/03/26 09:09:22;;;;;;;9.95;5.40;;;;;;;8.92;98.32;102811.88;5075712;28;20158;-42
2022/03/26 09:11:49;;;;;;;7.95;5.15;;;;;;;8.94;98.26;102811.84;5075840;28;20608;-43
2022/03/26 09:14:15;;;;;;;6.70;4.85;;;;;;;9.03;97.74;102815.44;5075765;28;20202;-43
2022/03/26 09:16:40;;;;;;;7.85;5.35;;;;;;;9.01;97.44;102809.19;5075699;28;20212;-41
2022/03/26 09:19:06;;;;;;;6.38;5.40;;;;;;;9.00;97.59;102809.19;5075875;28;20324;-43
2022/03/26 09:21:31;;;;;;;6.90;5.35;;;;;;;9.04;97.19;102810.97;5075605;28;20171;-43
2022/03/26 09:23:57;;;;;;;6.20;5.32;;;;;;;9.21;97.05;102810.97;5075443;28;20658;-41
2022/03/26 09:26:22;;;;;;;6.25;4.50;;;;;;;9.26;95.86;102815.41;5075622;28;20220;-42
2022/03/26 09:28:47;;;;;;;5.70;5.20;;;;;;;9.40;94.90;102814.50;5075973;28;20541;-42
2022/03/26 09:31:13;;;;;;;5.80;4.78;;;;;;;9.40;94.38;102820.78;5075784;28;20185;-42
2022/03/26 09:33:38;;;;;;;6.55;4.38;;;;;;;9.67;93.39;102826.97;5075430;28;20185;-44
2022/03/26 09:36:04;;;;;;;4.63;3.92;;;;;;;9.67;92.33;102821.59;5075032;28;20225;-42
2022/03/26 09:38:29;;;;;;;5.53;3.65;;;;;;;9.85;91.12;102839.41;5075950;28;20182;-42
2022/03/26 09:40:54;;;;;;;7.03;3.50;;;;;;;10.01;90.19;102832.19;5075986;28;20562;-42
2022/03/26 09:43:22;;;;;;;4.20;3.13;;;;;;;10.18;89.53;102827.66;5075292;28;20664;-43
2022/03/26 09:45:47;;;;;;;4.80;3.30;;;;;;;10.38;88.25;102840.09;5060956;28;20211;-41
2022/03/26 09:48:13;;;;;;;9.27;3.03;;;;;;;10.51;87.41;102828.41;5054590;28;20258;-42
2022/03/26 09:50:41;;;;;;;6.05;3.00;;;;;;;10.57;86.42;102828.38;5055557;28;20167;-41
2022/03/26 09:53:11;;;;;;;5.85;2.83;;;;;;;11.13;85.12;102820.84;5066324;28;20186;-42
2022/03/26 09:55:38;;;;;;;3.22;2.88;;;;;;;10.99;83.51;102817.38;5071748;28;20727;-42
2022/03/26 09:58:04;;;;;;;4.18;2.90;;;;;;;11.04;83.31;102819.13;5072125;28;20178;-42
2022/03/26 10:00:29;;;;;;;3.10;2.40;;;;;;;10.87;83.13;102821.94;5071216;28;20641;-43
2022/03/26 10:02:54;;;;;;;4.10;2.78;;;;;;;11.02;83.44;102812.88;5071048;28;20258;-43
2022/03/26 10:05:20;;;;;;;4.85;2.97;;;;;;;11.17;82.61;102806.47;5071472;28;20526;-44
2022/03/26 10:07:50;;;;;;;4.38;3.28;;;;;;;11.04;82.67;102816.44;5070384;28;20664;-43
2022/03/26 10:10:23;;;;;;;6.45;3.25;;;;;;;11.31;82.67;102801.00;5070388;28;20212;-41
2022/03/26 10:12:51;;;;;;;4.00;3.13;;;;;;;11.55;81.89;102815.97;5070934;28;20222;-43
2022/03/26 10:15:16;;;;;;;2.80;2.50;;;;;;;11.44;81.34;102817.88;5071217;28;20277;-43
2022/03/26 10:17:42;;;;;;;3.03;2.72;;;;;;;11.29;79.73;102809.06;5071480;28;20270;-43
2022/03/26 10:20:12;;;;;;;3.83;2.25;;;;;;;11.70;80.25;102810.44;5070685;28;20548;-44
2022/03/26 10:22:42;;;;;;;4.03;2.58;;;;;;;12.24;78.72;102807.09;5071349;28;20170;-43
2022/03/26 10:25:13;;;;;;;3.90;2.40;;;;;;;12.10;77.04;102806.41;5071871;28;20357;-42
2022/03/26 10:27:49;;;;;;;2.60;2.00;;;;;;;12.10;77.22;102801.03;5071837;28;20173;-41
2022/03/26 10:30:17;;;;;;;2.00;1.77;;;;;;;12.00;75.64;102796.69;5071825;28;20279;-42
2022/03/26 10:32:45;;;;;;;7.57;2.70;;;;;;;11.98;76.32;102810.13;5071564;28;20183;-41
2022/03/26 10:35:25;;;;;;;3.92;2.65;;;;;;;11.80;77.13;102807.63;5071431;28;20587;-42
2022/03/26 10:37:58;;;;;;;5.25;2.55;;;;;;;11.76;78.23;102806.78;5071570;28;20289;-41
2022/03/26 10:40:30;;;;;;;5.03;3.03;;;;;;;12.04;78.21;102814.53;5071465;28;20574;-42
2022/03/26 10:42:58;;;;;;;3.50;2.38;;;;;;;12.25;76.88;102821.44;5070953;28;20266;-42
2022/03/26 10:45:25;;;;;;;5.20;2.60;;;;;;;11.92;76.52;102810.22;5042098;28;20214;-42
2022/03/26 10:47:58;;;;;;;2.50;2.20;;;;;;;11.65;76.84;102812.25;5051071;28;20178;-41
2022/03/26 10:50:33;;;;;;;2.95;2.17;;;;;;;11.70;76.97;102817.59;5051754;28;20296;-43
2022/03/26 10:53:04;;;;;;;2.85;2.65;;;;;;;11.80;77.03;102813.88;5049446;28;20660;-42
2022/03/26 10:55:30;;;;;;;2.40;2.20;;;;;;;11.84;77.32;102817.44;5051207;28;20225;-43
2022/03/26 10:57:56;;;;;;;3.67;2.92;;;;;;;11.95;76.83;102808.38;5051347;28;20183;-41
2022/03/26 11:00:22;;;;;;;3.72;2.80;;;;;;;12.64;75.39;102800.25;5051286;28;20206;-42
2022/03/26 11:02:48;;;;;;;2.45;2.22;;;;;;;12.94;74.48;102797.13;5050881;28;20212;-43
2022/03/26 11:05:13;;;;;;;2.40;2.20;;;;;;;12.78;72.74;102798.25;5050472;28;20637;-41
2022/03/26 11:07:43;;;;;;;2.55;2.28;;;;;;;12.32;74.00;102794.44;5051197;28;20158;-42
2022/03/26 11:10:11;;;;;;;2.60;2.40;;;;;;;12.23;73.95;102794.59;5050838;28;20183;-42